Time;durP1;ratioP1;P1;durP2;ratioP2;P2;SDS_P1;SDS_P2;PMS_P1;PMS_P2;Temp;Humidity;BMP_temperature;BMP_pressure;BME280_temperature;BME280_humidity;BME280_pressure;Samples;Min_cycle;Max_cycle;Signal;HPM_P1;HPM_P2
2020/12/12 00:00:08;;;;;;;;;;;;;;;;;;5093132;28;19915;-43
2020/12/12 00:02:34;;;;;;;;;;;;;;;;;;5091427;28;19912;-42
2020/12/12 00:04:59;;;;;;;;;;;;;;;;;;5093046;28;19908;-42
2020/12/12 00:07:24;;;;;;;;;;;;;;;;;;5092947;28;20430;-44
2020/12/12 00:09:49;;;;;;;;;;;;;;;;;;5092891;28;20376;-42
2020/12/12 00:12:14;;;;;;;;;;;;;;;;;;5092172;28;20518;-42
2020/12/12 00:14:39;;;;;;;;;;;;;;;;;;5092874;28;19908;-45
2020/12/12 00:17:05;;;;;;;;;;;;;;;;;;5093003;28;20276;-44
2020/12/12 00:19:30;;;;;;;;;;;;;;;;;;5092648;28;19916;-45
2020/12/12 00:21:55;;;;;;;;;;;;;;;;;;5092570;28;19912;-44
2020/12/12 00:24:20;;;;;;;;;;;;;;;;;;5092199;28;19908;-44
2020/12/12 00:26:45;;;;;;;;;;;;;;;;;;5091571;28;19908;-43
2020/12/12 00:29:10;;;;;;;;;;;;;;;;;;5092524;28;19915;-43
2020/12/12 00:31:35;;;;;;;;;;;;;;;;;;5092648;28;19950;-43
2020/12/12 00:34:00;;;;;;;;;;;;;;;;;;5091674;28;19908;-44
2020/12/12 00:36:25;;;;;;;;;;;;;;;;;;5092530;28;19931;-43
2020/12/12 00:38:51;;;;;;;;;;;;;;;;;;5092942;28;20272;-44
2020/12/12 00:41:16;;;;;;;;;;;;;;;;;;5092317;28;20303;-44
2020/12/12 00:43:41;;;;;;;;;;;;;;;;;;5091766;28;19912;-43
2020/12/12 00:46:06;;;;;;;;;;;;;;;;;;5092510;28;20285;-42
2020/12/12 00:48:31;;;;;;;;;;;;;;;;;;5092385;28;19914;-43
2020/12/12 00:50:56;;;;;;;;;;;;;;;;;;5092390;28;19911;-43
2020/12/12 00:53:21;;;;;;;;;;;;;;;;;;5091651;28;19994;-43
2020/12/12 00:55:46;;;;;;;;;;;;;;;;;;5092354;28;19904;-46
2020/12/12 00:58:11;;;;;;;;;;;;;;;;;;5092218;28;19908;-43
2020/12/12 01:00:36;;;;;;;;;;;;;;;;;;5092287;28;19904;-45
2020/12/12 01:03:02;;;;;;;;;;;;;;;;;;5091678;28;20307;-44
2020/12/12 01:05:27;;;;;;;;;;;;;;;;;;5092169;28;20312;-45
2020/12/12 01:07:52;;;;;;;;;;;;;;;;;;5092192;28;19922;-42
2020/12/12 01:10:17;;;;;;;;;;;;;;;;;;5092086;28;20006;-45
2020/12/12 01:12:42;;;;;;;;;;;;;;;;;;5091503;28;19946;-42
2020/12/12 01:15:07;;;;;;;;;;;;;;;;;;5095939;28;19946;-43
2020/12/12 01:17:32;;;;;;;;;;;;;;;;;;5096060;28;19952;-43
2020/12/12 01:19:57;;;;;;;;;;;;;;;;;;5168843;22;20016;-42
2020/12/12 01:22:22;;;;;;;;;;;;;;;;;;5115846;28;19959;-40
2020/12/12 01:24:48;;;;;;;;;;;;;;;;;;5115654;28;19943;-40
2020/12/12 01:27:13;;;;;;;;;;;;;;;;;;5116205;28;20056;-42
2020/12/12 01:29:38;;;;;;;;;;;;;;;;;;5116293;28;19973;-41
2020/12/12 01:32:03;;;;;;;;;;;;;;;;;;5114468;28;20340;-40
2020/12/12 01:34:28;;;;;;;;;;;;;;;;;;5116277;28;19912;-41
2020/12/12 01:36:53;;;;;;;;;;;;;;;;;;5116205;28;19908;-41
2020/12/12 01:39:18;;;;;;;;;;;;;;;;;;5116042;28;19912;-40
2020/12/12 01:41:43;;;;;;;;;;;;;;;;;;5116015;28;20437;-41
2020/12/12 01:44:08;;;;;;;;;;;;;;;;;;5114067;28;19908;-41
2020/12/12 01:46:34;;;;;;;;;;;;;;;;;;5116187;28;20256;-40
2020/12/12 01:48:59;;;;;;;;;;;;;;;;;;5116001;28;19954;-41
2020/12/12 01:51:27;;;;;;;;;;;;;;;;;;5115903;28;20421;-43
2020/12/12 01:53:52;;;;;;;;;;;;;;;;;;5115223;28;20299;-42
2020/12/12 01:56:17;;;;;;;;;;;;;;;;;;5114489;28;20280;-40
2020/12/12 01:58:42;;;;;;;;;;;;;;;;;;5115823;28;19933;-43
2020/12/12 02:01:07;;;;;;;;;;;;;;;;;;5115809;28;19956;-41
2020/12/12 02:03:32;;;;;;;;;;;;;;;;;;5114995;28;19959;-42
2020/12/12 02:05:57;;;;;;;;;;;;;;;;;;5115704;28;20356;-41
2020/12/12 02:08:22;;;;;;;;;;;;;;;;;;5116081;28;19908;-41
2020/12/12 02:10:48;;;;;;;;;;;;;;;;;;5115569;28;19912;-41
2020/12/12 02:13:13;;;;;;;;;;;;;;;;;;5114909;28;19908;-41
2020/12/12 02:15:38;;;;;;;;;;;;;;;;;;5115392;28;20003;-41
2020/12/12 02:18:03;;;;;;;;;;;;;;;;;;5115380;28;19939;-42
2020/12/12 02:20:28;;;;;;;;;;;;;;;;;;5115433;28;19911;-41
2020/12/12 02:22:53;;;;;;;;;;;;;;;;;;5114675;28;19935;-41
2020/12/12 02:25:18;;;;;;;;;;;;;;;;;;5113195;28;19911;-42
2020/12/12 02:27:43;;;;;;;;;;;;;;;;;;5115192;28;19947;-41
2020/12/12 02:30:09;;;;;;;;;;;;;;;;;;5115294;28;19907;-40
2020/12/12 02:32:34;;;;;;;;;;;;;;;;;;5114691;28;19932;-41
2020/12/12 02:34:59;;;;;;;;;;;;;;;;;;5115099;28;19947;-43
2020/12/12 02:37:24;;;;;;;;;;;;;;;;;;5113799;28;19908;-41
2020/12/12 02:39:49;;;;;;;;;;;;;;;;;;5113628;28;20372;-42
2020/12/12 02:42:14;;;;;;;;;;;;;;;;;;5114244;28;19968;-44
2020/12/12 02:44:39;;;;;;;;;;;;;;;;;;5114957;28;19912;-42
2020/12/12 02:47:04;;;;;;;;;;;;;;;;;;5114916;28;20039;-41
2020/12/12 02:49:30;;;;;;;;;;;;;;;;;;5114668;28;19912;-41
2020/12/12 02:51:55;;;;;;;;;;;;;;;;;;5114769;28;19994;-40
2020/12/12 02:54:20;;;;;;;;;;;;;;;;;;5114663;28;20267;-41
2020/12/12 02:56:45;;;;;;;;;;;;;;;;;;5114689;28;20361;-40
2020/12/12 02:59:10;;;;;;;;;;;;;;;;;;5114614;28;20364;-41
2020/12/12 03:01:35;;;;;;;;;;;;;;;;;;5113122;28;19912;-41
2020/12/12 03:04:00;;;;;;;;;;;;;;;;;;5113921;28;20003;-40
2020/12/12 03:06:25;;;;;;;;;;;;;;;;;;5113899;28;20007;-41
2020/12/12 03:08:50;;;;;;;;;;;;;;;;;;5113268;28;19955;-42
2020/12/12 03:11:15;;;;;;;;;;;;;;;;;;5114174;28;19939;-40
2020/12/12 03:13:41;;;;;;;;;;;;;;;;;;5113626;28;19950;-41
2020/12/12 03:16:06;;;;;;;;;;;;;;;;;;5114385;28;19939;-43
2020/12/12 03:18:31;;;;;;;;;;;;;;;;;;5112856;28;19916;-41
2020/12/12 03:20:56;;;;;;;;;;;;;;;;;;5114218;28;19952;-42
2020/12/12 03:23:21;;;;;;;;;;;;;;;;;;5113501;28;20052;-40
2020/12/12 03:25:46;;;;;;;;;;;;;;;;;;5112902;28;19939;-41
2020/12/12 03:28:11;;;;;;;;;;;;;;;;;;5114057;28;20012;-41
2020/12/12 03:30:36;;;;;;;;;;;;;;;;;;5114081;28;19908;-41
2020/12/12 03:33:01;;;;;;;;;;;;;;;;;;5113333;28;20333;-41
2020/12/12 03:35:28;;;;;;;;;;;;;;;;;;5113882;28;19908;-42
2020/12/12 03:37:53;;;;;;;;;;;;;;;;;;5113904;28;19915;-41
2020/12/12 03:40:18;;;;;;;;;;;;;;;;;;5113891;28;19994;-41
2020/12/12 03:42:43;;;;;;;;;;;;;;;;;;5113029;28;20006;-41
2020/12/12 03:45:08;;;;;;;;;;;;;;;;;;5113818;28;19999;-40
2020/12/12 03:47:33;;;;;;;;;;;;;;;;;;5113879;28;20026;-41
2020/12/12 03:49:58;;;;;;;;;;;;;;;;;;5113582;28;19982;-40
2020/12/12 03:52:23;;;;;;;;;;;;;;;;;;5113009;28;20328;-41
2020/12/12 03:54:48;;;;;;;;;;;;;;;;;;5113621;28;20364;-41
2020/12/12 03:57:14;;;;;;;;;;;;;;;;;;5113468;28;19914;-41
2020/12/12 03:59:39;;;;;;;;;;;;;;;;;;5113496;28;19916;-43
2020/12/12 04:02:04;;;;;;;;;;;;;;;;;;5112736;28;19912;-41
2020/12/12 04:04:29;;;;;;;;;;;;;;;;;;5110356;28;19912;-42
2020/12/12 04:06:54;;;;;;;;;;;;;;;;;;5122126;27;20411;-40
2020/12/12 04:09:19;;;;;;;;;;;;;;;;;;5120605;27;19911;-41
2020/12/12 04:11:44;;;;;;;;;;;;;;;;;;5133648;27;19911;-39
2020/12/12 04:14:09;;;;;;;;;;;;;;;;;;5120625;27;19915;-41
2020/12/12 04:16:34;;;;;;;;;;;;;;;;;;5113108;28;20057;-41
2020/12/12 04:19:00;;;;;;;;;;;;;;;;;;5112974;28;20454;-41
2020/12/12 04:21:25;;;;;;;;;;;;;;;;;;5114332;27;20405;-42
2020/12/12 04:23:50;;;;;;;;;;;;;;;;;;5132832;27;20447;-41
2020/12/12 04:26:15;;;;;;;;;;;;;;;;;;5132200;27;20003;-40
2020/12/12 04:28:40;;;;;;;;;;;;;;;;;;5133487;27;19908;-41
2020/12/12 04:31:05;;;;;;;;;;;;;;;;;;5133592;27;19952;-40
2020/12/12 04:33:30;;;;;;;;;;;;;;;;;;5132709;27;20368;-41
2020/12/12 04:35:55;;;;;;;;;;;;;;;;;;5133454;27;19907;-41
2020/12/12 04:38:21;;;;;;;;;;;;;;;;;;5132798;27;19907;-38
2020/12/12 04:40:46;;;;;;;;;;;;;;;;;;5112824;28;20008;-43
2020/12/12 04:43:11;;;;;;;;;;;;;;;;;;5112283;28;19966;-41
2020/12/12 04:45:37;;;;;;;;;;;;;;;;;;5112652;28;19908;-40
2020/12/12 04:48:02;;;;;;;;;;;;;;;;;;5112107;28;19950;-40
2020/12/12 04:50:30;;;;;;;;;;;;;;;;;;5112671;28;20383;-40
2020/12/12 04:52:55;;;;;;;;;;;;;;;;;;5111907;28;19908;-38
2020/12/12 04:55:20;;;;;;;;;;;;;;;;;;5112525;28;19968;-41
2020/12/12 04:57:45;;;;;;;;;;;;;;;;;;5112519;28;19912;-41
2020/12/12 05:00:10;;;;;;;;;;;;;;;;;;5112605;28;20002;-42
2020/12/12 05:02:35;;;;;;;;;;;;;;;;;;5111724;28;20000;-41
2020/12/12 05:05:01;;;;;;;;;;;;;;;;;;5121843;28;19911;-40
2020/12/12 05:07:26;;;;;;;;;;;;;;;;;;5132072;28;20044;-41
2020/12/12 05:09:51;;;;;;;;;;;;;;;;;;5132374;28;19939;-40
2020/12/12 05:12:16;;;;;;;;;;;;;;;;;;5131691;28;19911;-41
2020/12/12 05:14:41;;;;;;;;;;;;;;;;;;5131839;28;19952;-41
2020/12/12 05:17:06;;;;;;;;;;;;;;;;;;5132361;28;19961;-40
2020/12/12 05:19:31;;;;;;;;;;;;;;;;;;5130509;28;19919;-41
2020/12/12 05:21:56;;;;;;;;;;;;;;;;;;5132787;28;19912;-39
2020/12/12 05:24:21;;;;;;;;;;;;;;;;;;5132005;28;19954;-41
2020/12/12 05:26:47;;;;;;;;;;;;;;;;;;5131922;28;20292;-43
2020/12/12 05:29:12;;;;;;;;;;;;;;;;;;5132851;28;19908;-41
2020/12/12 05:31:37;;;;;;;;;;;;;;;;;;5132974;28;19908;-42
2020/12/12 05:34:02;;;;;;;;;;;;;;;;;;5131914;28;19963;-41
2020/12/12 05:36:27;;;;;;;;;;;;;;;;;;5132019;28;19998;-40
2020/12/12 05:38:52;;;;;;;;;;;;;;;;;;5132779;28;20316;-40
2020/12/12 05:41:17;;;;;;;;;;;;;;;;;;5132336;28;20283;-40
2020/12/12 05:43:42;;;;;;;;;;;;;;;;;;5132519;28;20275;-40
2020/12/12 05:46:07;;;;;;;;;;;;;;;;;;5132312;28;20455;-40
2020/12/12 05:48:33;;;;;;;;;;;;;;;;;;5131700;28;20508;-40
2020/12/12 05:50:58;;;;;;;;;;;;;;;;;;5132778;28;20014;-41
2020/12/12 05:53:23;;;;;;;;;;;;;;;;;;5132558;28;19999;-41
2020/12/12 05:55:48;;;;;;;;;;;;;;;;;;5131591;28;19910;-40
2020/12/12 05:58:14;;;;;;;;;;;;;;;;;;5132104;28;20298;-40
2020/12/12 06:00:39;;;;;;;;;;;;;;;;;;5133922;27;20006;-41
2020/12/12 06:03:04;;;;;;;;;;;;;;;;;;5135771;27;20002;-41
2020/12/12 06:05:29;;;;;;;;;;;;;;;;;;5135447;27;19951;-42
2020/12/12 06:07:54;;;;;;;;;;;;;;;;;;5135813;27;19907;-41
2020/12/12 06:10:19;;;;;;;;;;;;;;;;;;5135584;27;19907;-42
2020/12/12 06:12:45;;;;;;;;;;;;;;;;;;5136083;27;19915;-41
2020/12/12 06:15:10;;;;;;;;;;;;;;;;;;5136231;27;19911;-41
2020/12/12 06:17:35;;;;;;;;;;;;;;;;;;5136193;27;19908;-41
2020/12/12 06:20:00;;;;;;;;;;;;;;;;;;5136030;27;19922;-40
2020/12/12 06:22:25;;;;;;;;;;;;;;;;;;5120278;27;20516;-41
2020/12/12 06:24:51;;;;;;;;;;;;;;;;;;5127916;27;19908;-40
2020/12/12 06:27:16;;;;;;;;;;;;;;;;;;5115404;28;19908;-43
2020/12/12 06:29:42;;;;;;;;;;;;;;;;;;5115223;28;19911;-41
2020/12/12 06:32:07;;;;;;;;;;;;;;;;;;5114986;28;19908;-41
2020/12/12 06:34:32;;;;;;;;;;;;;;;;;;5115339;28;20457;-40
2020/12/12 06:36:57;;;;;;;;;;;;;;;;;;5114873;28;20006;-41
2020/12/12 06:39:22;;;;;;;;;;;;;;;;;;5115169;28;20011;-43
2020/12/12 06:41:47;;;;;;;;;;;;;;;;;;5114952;28;20014;-40
2020/12/12 06:44:12;;;;;;;;;;;;;;;;;;5114712;28;19930;-41
2020/12/12 06:46:37;;;;;;;;;;;;;;;;;;5114900;28;20330;-40
2020/12/12 06:49:02;;;;;;;;;;;;;;;;;;5115091;28;19977;-41
2020/12/12 06:51:28;;;;;;;;;;;;;;;;;;5114714;28;19904;-40
2020/12/12 06:53:53;;;;;;;;;;;;;;;;;;5114559;28;19911;-40
2020/12/12 06:56:18;;;;;;;;;;;;;;;;;;5114518;28;19908;-41
2020/12/12 06:58:43;;;;;;;;;;;;;;;;;;5114975;28;19919;-41
2020/12/12 07:01:08;;;;;;;;;;;;;;;;;;5114640;28;19916;-40
2020/12/12 07:03:33;;;;;;;;;;;;;;;;;;5114349;28;20440;-41
2020/12/12 07:05:58;;;;;;;;;;;;;;;;;;5114589;28;20427;-41
2020/12/12 07:08:23;;;;;;;;;;;;;;;;;;5114318;28;20053;-39
2020/12/12 07:10:48;;;;;;;;;;;;;;;;;;5114379;27;19995;-43
2020/12/12 07:13:14;;;;;;;;;;;;;;;;;;5113948;28;20018;-41
2020/12/12 07:15:39;;;;;;;;;;;;;;;;;;5114426;28;19999;-44
2020/12/12 07:18:04;;;;;;;;;;;;;;;;;;5114018;28;19945;-41
2020/12/12 07:20:29;;;;;;;;;;;;;;;;;;5136681;22;19969;-43
2020/12/12 07:22:54;;;;;;;;;;;;;;;;;;5092455;28;19912;-39
2020/12/12 07:25:19;;;;;;;;;;;;;;;;;;5093769;28;19912;-46
2020/12/12 07:27:44;;;;;;;;;;;;;;;;;;5093244;28;19995;-43
2020/12/12 07:30:10;;;;;;;;;;;;;;;;;;5093338;28;19912;-44
2020/12/12 07:32:35;;;;;;;;;;;;;;;;;;5093107;28;19978;-42
2020/12/12 07:35:00;;;;;;;;;;;;;;;;;;5093440;28;19912;-42
2020/12/12 07:37:25;;;;;;;;;;;;;;;;;;5092394;28;19995;-44
2020/12/12 07:39:52;;;;;;;;;;;;;;;;;;5093253;28;19912;-40
2020/12/12 07:42:18;;;;;;;;;;;;;;;;;;5091277;28;19946;-41
2020/12/12 07:44:43;;;;;;;;;;;;;;;;;;5093466;28;19908;-41
2020/12/12 07:47:08;;;;;;;;;;;;;;;;;;5093404;28;19908;-42
2020/12/12 07:49:33;;;;;;;;;;;;;;;;;;5093184;28;19908;-43
2020/12/12 07:51:58;;;;;;;;;;;;;;;;;;5092673;28;20009;-42
2020/12/12 07:54:24;;;;;;;;;;;;;;;;;;5093151;28;19908;-43
2020/12/12 07:56:49;;;;;;;;;;;;;;;;;;5093190;28;20369;-42
2020/12/12 07:59:19;;;;;;;;;;;;;;;;;;5093143;28;20415;-42
2020/12/12 08:01:44;;;;;;;;;;;;;;;;;;5092977;28;20363;-44
2020/12/12 08:04:09;;;;;;;;;;;;;;;;;;5092323;28;20337;-42
2020/12/12 08:06:34;;;;;;;;;;;;;;;;;;5092998;28;20385;-42
2020/12/12 08:08:59;;;;;;;;;;;;;;;;;;5092822;28;20369;-41
2020/12/12 08:11:24;;;;;;;;;;;;;;;;;;5092836;28;19958;-42
2020/12/12 08:13:49;;;;;;;;;;;;;;;;;;5092103;28;20329;-42
2020/12/12 08:16:23;;;;;;;;;;;;;;;;;;5079503;28;19915;-42
2020/12/12 08:18:48;;;;;;;;;;;;;;;;;;5072321;28;20278;-42
2020/12/12 08:21:14;;;;;;;;;;;;;;;;;;5072274;28;20335;-42
2020/12/12 08:23:39;;;;;;;;;;;;;;;;;;5071104;28;19912;-42
2020/12/12 08:26:04;;;;;;;;;;;;;;;;;;5072208;28;19915;-42
2020/12/12 08:28:30;;;;;;;;;;;;;;;;;;5071806;28;19917;-42
2020/12/12 08:30:55;;;;;;;;;;;;;;;;;;5071914;28;19908;-42
2020/12/12 08:33:20;;;;;;;;;;;;;;;;;;5072172;28;20289;-41
2020/12/12 08:35:45;;;;;;;;;;;;;;;;;;5072298;28;20361;-42
2020/12/12 08:38:10;;;;;;;;;;;;;;;;;;5071324;28;20365;-42
2020/12/12 08:40:35;;;;;;;;;;;;;;;;;;5072116;28;19915;-42
2020/12/12 08:43:00;;;;;;;;;;;;;;;;;;5072217;28;19916;-42
2020/12/12 08:45:27;;;;;;;;;;;;;;;;;;5071419;28;20210;-42
2020/12/12 08:47:52;;;;;;;;;;;;;;;;;;5071775;28;20435;-41
2020/12/12 08:50:17;;;;;;;;;;;;;;;;;;5072131;28;19967;-42
2020/12/12 08:52:43;;;;;;;;;;;;;;;;;;5071737;28;19931;-41
2020/12/12 08:55:12;;;;;;;;;;;;;;;;;;5072155;28;19905;-42
2020/12/12 08:57:38;;;;;;;;;;;;;;;;;;5072015;28;19930;-41
2020/12/12 09:00:03;;;;;;;;;;;;;;;;;;5071430;28;19905;-42
2020/12/12 09:02:28;;;;;;;;;;;;;;;;;;5071869;28;20007;-43
2020/12/12 09:04:53;;;;;;;;;;;;;;;;;;5072149;28;20000;-44
2020/12/12 09:07:18;;;;;;;;;;;;;;;;;;5071471;28;19924;-42
2020/12/12 09:09:44;;;;;;;;;;;;;;;;;;5071389;28;19912;-43
2020/12/12 09:12:10;;;;;;;;;;;;;;;;;;5071673;28;20291;-42
2020/12/12 09:14:35;;;;;;;;;;;;;;;;;;5071641;28;19970;-44
2020/12/12 09:17:00;;;;;;;;;;;;;;;;;;5071896;28;19912;-42
2020/12/12 09:19:26;;;;;;;;;;;;;;;;;;5071277;28;20039;-43
2020/12/12 09:21:51;;;;;;;;;;;;;;;;;;5071010;28;19913;-42
2020/12/12 09:24:18;;;;;;;;;;;;;;;;;;5071779;28;19939;-42
2020/12/12 09:26:43;;;;;;;;;;;;;;;;;;5072025;28;20293;-42
2020/12/12 09:29:08;;;;;;;;;;;;;;;;;;5071931;28;19909;-42
2020/12/12 09:31:33;;;;;;;;;;;;;;;;;;5071912;28;19909;-42
2020/12/12 09:33:58;;;;;;;;;;;;;;;;;;5071602;28;20266;-42
2020/12/12 09:36:24;;;;;;;;;;;;;;;;;;5075743;28;20420;-42
2020/12/12 09:38:49;;;;;;;;;;;;;;;;;;5075641;28;20365;-43
2020/12/12 09:41:14;;;;;;;;;;;;;;;;;;5075728;28;19952;-45
2020/12/12 09:43:39;;;;;;;;;;;;;;;;;;5075302;28;20430;-42
2020/12/12 09:46:04;;;;;;;;;;;;;;;;;;5075547;28;19955;-45
2020/12/12 09:48:29;;;;;;;;;;;;;;;;;;5075465;28;19940;-42
2020/12/12 09:50:54;;;;;;;;;;;;;;;;;;5075476;28;19951;-43
2020/12/12 09:53:19;;;;;;;;;;;;;;;;;;5075037;28;19916;-42
2020/12/12 09:55:46;;;;;;;;;;;;;;;;;;5075591;28;19920;-42
2020/12/12 09:58:11;;;;;;;;;;;;;;;;;;5075484;28;19908;-42
2020/12/12 10:00:36;;;;;;;;;;;;;;;;;;5075195;28;19915;-42
2020/12/12 10:03:01;;;;;;;;;;;;;;;;;;5074927;28;19919;-42
2020/12/12 10:05:26;;;;;;;;;;;;;;;;;;5075144;28;19915;-42
2020/12/12 10:07:51;;;;;;;;;;;;;;;;;;5075118;28;19915;-42
2020/12/12 10:10:16;;;;;;;;;;;;;;;;;;5075072;28;19963;-42
2020/12/12 10:12:41;;;;;;;;;;;;;;;;;;5074779;28;19913;-42
2020/12/12 10:15:07;;;;;;;;;;;;;;;;;;5086814;28;19909;-42
2020/12/12 10:17:32;;;;;;;;;;;;;;;;;;5078167;28;19934;-42
2020/12/12 10:19:57;;;;;;;;;;;;;;;;;;5074809;28;19916;-45
2020/12/12 10:22:22;;;;;;;;;;;;;;;;;;5074102;28;19912;-42
2020/12/12 10:24:47;;;;;;;;;;;;;;;;;;5074864;28;19908;-43
2020/12/12 10:27:12;;;;;;;;;;;;;;;;;;5074999;28;20243;-42
2020/12/12 10:29:37;;;;;;;;;;;;;;;;;;5074774;28;20301;-43
2020/12/12 10:32:02;;;;;;;;;;;;;;;;;;5074465;28;19904;-42
2020/12/12 10:34:27;;;;;;;;;;;;;;;;;;5074670;28;20003;-43
2020/12/12 10:36:53;;;;;;;;;;;;;;;;;;5074499;28;20023;-42
2020/12/12 10:39:26;;;;;;;;;;;;;;;;;;5074484;28;19916;-43
2020/12/12 10:41:52;;;;;;;;;;;;;;;;;;5074525;28;20346;-42
2020/12/12 10:44:17;;;;;;;;;;;;;;;;;;5074285;28;19912;-41
2020/12/12 10:46:42;;;;;;;;;;;;;;;;;;5073819;28;19908;-43
2020/12/12 10:49:07;;;;;;;;;;;;;;;;;;5074230;28;19916;-42
2020/12/12 10:51:32;;;;;;;;;;;;;;;;;;5074329;28;19916;-42
2020/12/12 10:53:57;;;;;;;;;;;;;;;;;;5073881;28;19917;-42
2020/12/12 10:56:22;;;;;;;;;;;;;;;;;;5074325;28;20358;-42
2020/12/12 10:58:47;;;;;;;;;;;;;;;;;;5074053;28;20003;-42
2020/12/12 11:01:13;;;;;;;;;;;;;;;;;;5074141;28;20010;-42
2020/12/12 11:03:38;;;;;;;;;;;;;;;;;;5072442;28;20000;-45
2020/12/12 11:06:03;;;;;;;;;;;;;;;;;;5074066;28;20007;-42
2020/12/12 11:08:28;;;;;;;;;;;;;;;;;;5073793;28;19908;-42
2020/12/12 11:10:53;;;;;;;;;;;;;;;;;;5074043;28;19934;-42
2020/12/12 11:13:19;;;;;;;;;;;;;;;;;;5073623;28;19912;-44
2020/12/12 11:15:45;;;;;;;;;;;;;;;;;;5086839;28;19915;-43
2020/12/12 11:18:11;;;;;;;;;;;;;;;;;;5073664;28;19912;-43
2020/12/12 11:20:36;;;;;;;;;;;;;;;;;;5073273;28;20505;-43
2020/12/12 11:23:01;;;;;;;;;;;;;;;;;;5082165;28;20468;-42
2020/12/12 11:25:27;;;;;;;;;;;;;;;;;;5094104;28;19987;-43
2020/12/12 11:27:54;;;;;;;;;;;;;;;;;;5093801;28;20266;-42
2020/12/12 11:30:19;;;;;;;;;;;;;;;;;;5093817;28;19909;-42
2020/12/12 11:32:45;;;;;;;;;;;;;;;;;;5074460;28;19954;-42
2020/12/12 11:35:15;;;;;;;;;;;;;;;;;;5092370;28;19959;-42
2020/12/12 11:38:26;;;;;;;;;;;;;;;;;;5093744;28;19908;-46
2020/12/12 11:40:42;;;;;;;;;;;;;;;;;;5070727;28;20389;-46
2020/12/12 11:43:36;;;;;;;;;;;;;;;;;;5073028;28;20405;-43
2020/12/12 11:48:35;;;;;;;;;;;;;;;;;;5071626;28;19913;-44
2020/12/12 11:51:00;;;;;;;;;;;;;;;;;;5073182;28;19977;-43
2020/12/12 11:53:26;;;;;;;;;;;;;;;;;;5072755;28;19909;-43
2020/12/12 11:55:51;;;;;;;;;;;;;;;;;;5072619;28;19908;-45
2020/12/12 11:58:16;;;;;;;;;;;;;;;;;;5072537;28;19939;-43
2020/12/12 12:00:43;;;;;;;;;;;;;;;;;;5072313;28;19943;-44
2020/12/12 12:03:09;;;;;;;;;;;;;;;;;;5072312;28;20345;-43
2020/12/12 12:05:34;;;;;;;;;;;;;;;;;;5072871;28;20334;-43
2020/12/12 12:07:59;;;;;;;;;;;;;;;;;;5072999;28;19920;-43
2020/12/12 12:12:49;;;;;;;;;;;;;;;;;;5072591;28;20191;-42
2020/12/12 12:15:14;;;;;;;;;;;;;;;;;;5071305;28;19959;-43
2020/12/12 12:17:40;;;;;;;;;;;;;;;;;;5070911;28;20012;-43
2020/12/12 12:20:06;;;;;;;;;;;;;;;;;;5071832;28;19931;-42
2020/12/12 12:22:31;;;;;;;;;;;;;;;;;;5072163;28;19920;-43
2020/12/12 12:24:56;;;;;;;;;;;;;;;;;;5072028;28;19908;-42
2020/12/12 12:27:21;;;;;;;;;;;;;;;;;;5074867;28;19908;-43
2020/12/12 12:29:46;;;;;;;;;;;;;;;;;;5093104;28;19994;-44
2020/12/12 12:32:11;;;;;;;;;;;;;;;;;;5092214;28;19908;-43
2020/12/12 12:34:37;;;;;;;;;;;;;;;;;;5085207;28;19919;-43
2020/12/12 12:37:02;;;;;;;;;;;;;;;;;;5071529;28;20031;-46
2020/12/12 12:39:27;;;;;;;;;;;;;;;;;;5082139;28;20378;-43
2020/12/12 12:41:52;;;;;;;;;;;;;;;;;;5070329;28;20341;-44
2020/12/12 12:44:17;;;;;;;;;;;;;;;;;;5070342;28;19943;-44
2020/12/12 12:46:43;;;;;;;;;;;;;;;;;;5070147;28;20333;-43
2020/12/12 12:49:08;;;;;;;;;;;;;;;;;;5070410;28;19909;-46
2020/12/12 12:51:33;;;;;;;;;;;;;;;;;;5070517;28;19913;-44
2020/12/12 12:53:58;;;;;;;;;;;;;;;;;;5069758;28;20427;-45
2020/12/12 12:56:24;;;;;;;;;;;;;;;;;;5070610;28;19909;-43
2020/12/12 12:58:49;;;;;;;;;;;;;;;;;;5070163;28;19909;-44
2020/12/12 13:01:14;;;;;;;;;;;;;;;;;;5070186;28;19905;-44
2020/12/12 13:03:39;;;;;;;;;;;;;;;;;;5069850;28;20223;-44
2020/12/12 13:06:04;;;;;;;;;;;;;;;;;;5070403;28;20385;-46
2020/12/12 13:08:29;;;;;;;;;;;;;;;;;;5069440;28;20432;-43
2020/12/12 13:10:54;;;;;;;;;;;;;;;;;;5073787;28;20413;-45
2020/12/12 13:13:20;;;;;;;;;;;;;;;;;;5073851;28;20012;-43
2020/12/12 13:15:45;;;;;;;;;;;;;;;;;;5075193;28;19916;-43
2020/12/12 13:18:19;;;;;;;;;;;;;;;;;;5075512;28;19935;-43
2020/12/12 13:20:57;;;;;;;;;;;;;;;;;;5142674;22;19968;-44
2020/12/12 13:23:22;;;;;;;;;;;;;;;;;;5083179;28;19916;-44
2020/12/12 13:25:47;;;;;;;;;;;;;;;;;;5083069;28;19938;-43
2020/12/12 13:31:09;;;;;;;;;;;;;;;;;;5094346;28;20023;-43
2020/12/12 13:33:34;;;;;;;;;;;;;;;;;;5079960;28;20345;-43
2020/12/12 13:35:59;;;;;;;;;;;;;;;;;;5085045;28;20351;-44
2020/12/12 13:38:24;;;;;;;;;;;;;;;;;;5077973;28;19908;-43
2020/12/12 13:40:50;;;;;;;;;;;;;;;;;;5074197;28;19909;-44
2020/12/12 13:43:15;;;;;;;;;;;;;;;;;;5073665;28;19912;-44
2020/12/12 13:45:40;;;;;;;;;;;;;;;;;;5073268;28;19915;-43
2020/12/12 13:48:05;;;;;;;;;;;;;;;;;;5074663;28;19908;-43
2020/12/12 13:50:30;;;;;;;;;;;;;;;;;;5076095;28;19916;-42
2020/12/12 13:52:55;;;;;;;;;;;;;;;;;;5086961;28;20003;-42
2020/12/12 13:55:21;;;;;;;;;;;;;;;;;;5084015;28;19912;-42
2020/12/12 13:57:46;;;;;;;;;;;;;;;;;;5082820;28;19908;-43
2020/12/12 14:00:11;;;;;;;;;;;;;;;;;;5073674;28;19920;-39
2020/12/12 14:02:36;;;;;;;;;;;;;;;;;;5089789;28;19912;-44
2020/12/12 14:05:01;;;;;;;;;;;;;;;;;;5093891;28;19915;-44
2020/12/12 14:07:30;;;;;;;;;;;;;;;;;;5081498;28;19912;-42
2020/12/12 14:23:29;;;;;;;;;;;;;;;;;;5071871;28;20361;-45
2020/12/12 14:28:30;;;;;;;;;;;;;;;;;;5075020;28;19908;-44
2020/12/12 14:30:55;;;;;;;;;;;;;;;;;;5063810;28;20433;-44
2020/12/12 14:33:20;;;;;;;;;;;;;;;;;;5065872;28;20508;-44
2020/12/12 14:35:46;;;;;;;;;;;;;;;;;;5093091;28;20394;-43
2020/12/12 14:38:11;;;;;;;;;;;;;;;;;;5070766;28;19954;-45
2020/12/12 14:40:36;;;;;;;;;;;;;;;;;;5056162;28;19999;-46
2020/12/12 14:43:02;;;;;;;;;;;;;;;;;;5072092;28;20411;-43
2020/12/12 14:45:28;;;;;;;;;;;;;;;;;;5067635;28;19954;-45
2020/12/12 14:47:53;;;;;;;;;;;;;;;;;;5092960;28;19943;-41
2020/12/12 14:50:19;;;;;;;;;;;;;;;;;;5087458;28;20381;-42
2020/12/12 14:52:44;;;;;;;;;;;;;;;;;;5073177;28;19908;-43
2020/12/12 14:55:09;;;;;;;;;;;;;;;;;;5055654;28;20320;-42
2020/12/12 14:57:34;;;;;;;;;;;;;;;;;;5053461;28;19975;-45
2020/12/12 15:00:00;;;;;;;;;;;;;;;;;;5068988;28;19916;-42
2020/12/12 15:02:25;;;;;;;;;;;;;;;;;;5073064;28;20003;-45
2020/12/12 15:04:50;;;;;;;;;;;;;;;;;;5093150;28;20439;-43
2020/12/12 15:07:15;;;;;;;;;;;;;;;;;;5093553;28;19908;-43
2020/12/12 15:09:41;;;;;;;;;;;;;;;;;;5093385;28;19953;-44
2020/12/12 15:12:06;;;;;;;;;;;;;;;;;;5076286;28;20608;-44
2020/12/12 15:14:31;;;;;;;;;;;;;;;;;;5072776;28;19908;-45
2020/12/12 15:16:56;;;;;;;;;;;;;;;;;;5072961;28;19909;-43
2020/12/12 15:19:21;;;;;;;;;;;;;;;;;;5072646;28;19913;-44
2020/12/12 15:21:46;;;;;;;;;;;;;;;;;;5072419;28;19943;-44
2020/12/12 15:24:11;;;;;;;;;;;;;;;;;;5072376;28;20353;-43
2020/12/12 15:26:36;;;;;;;;;;;;;;;;;;5073258;28;19912;-43
2020/12/12 15:29:01;;;;;;;;;;;;;;;;;;5079690;28;19912;-44
2020/12/12 15:31:27;;;;;;;;;;;;;;;;;;5082724;28;19908;-44
2020/12/12 15:33:53;;;;;;;;;;;;;;;;;;5092123;28;19909;-43
2020/12/12 15:36:18;;;;;;;;;;;;;;;;;;5076803;28;20081;-42
2020/12/12 15:38:43;;;;;;;;;;;;;;;;;;5090313;28;20281;-44
2020/12/12 15:41:08;;;;;;;;;;;;;;;;;;5092176;28;19908;-44
2020/12/12 15:43:33;;;;;;;;;;;;;;;;;;5087075;28;19915;-45
2020/12/12 15:45:58;;;;;;;;;;;;;;;;;;5057382;28;19909;-44
2020/12/12 15:48:24;;;;;;;;;;;;;;;;;;5052239;28;20003;-41
2020/12/12 15:50:49;;;;;;;;;;;;;;;;;;5062774;28;19959;-39
2020/12/12 15:53:14;;;;;;;;;;;;;;;;;;5071756;28;19908;-43
2020/12/12 15:55:39;;;;;;;;;;;;;;;;;;5058498;28;19915;-44
2020/12/12 15:58:04;;;;;;;;;;;;;;;;;;5052393;28;20000;-42
2020/12/12 16:00:29;;;;;;;;;;;;;;;;;;5050828;28;19917;-47
2020/12/12 16:02:55;;;;;;;;;;;;;;;;;;5051983;28;19912;-43
2020/12/12 16:05:20;;;;;;;;;;;;;;;;;;5058739;28;19954;-43
2020/12/12 16:07:45;;;;;;;;;;;;;;;;;;5083180;28;19908;-43
2020/12/12 16:10:10;;;;;;;;;;;;;;;;;;5081201;28;19912;-44
2020/12/12 16:12:35;;;;;;;;;;;;;;;;;;5071462;28;19909;-43
2020/12/12 16:15:00;;;;;;;;;;;;;;;;;;5087364;28;19915;-44
2020/12/12 16:17:25;;;;;;;;;;;;;;;;;;5091893;28;20353;-44
2020/12/12 16:19:51;;;;;;;;;;;;;;;;;;5091600;28;20377;-39
2020/12/12 16:22:16;;;;;;;;;;;;;;;;;;5086289;28;20405;-44
2020/12/12 16:24:41;;;;;;;;;;;;;;;;;;5071680;28;19947;-44
2020/12/12 16:27:06;;;;;;;;;;;;;;;;;;5071253;28;19976;-46
2020/12/12 16:29:31;;;;;;;;;;;;;;;;;;5071546;28;19947;-44
2020/12/12 16:31:56;;;;;;;;;;;;;;;;;;5071899;28;20293;-44
2020/12/12 16:34:21;;;;;;;;;;;;;;;;;;5087529;28;19908;-43
2020/12/12 16:36:46;;;;;;;;;;;;;;;;;;5074950;28;19912;-44
2020/12/12 16:39:12;;;;;;;;;;;;;;;;;;5088792;28;19916;-40
2020/12/12 16:41:37;;;;;;;;;;;;;;;;;;5071110;28;19912;-44
2020/12/12 16:44:02;;;;;;;;;;;;;;;;;;5053059;28;19912;-43
2020/12/12 16:46:27;;;;;;;;;;;;;;;;;;5051804;28;19909;-43
2020/12/12 16:48:52;;;;;;;;;;;;;;;;;;5052283;28;19915;-42
2020/12/12 16:51:18;;;;;;;;;;;;;;;;;;5068766;28;19919;-43
2020/12/12 16:53:43;;;;;;;;;;;;;;;;;;5072008;28;19909;-44
2020/12/12 16:56:08;;;;;;;;;;;;;;;;;;5071027;28;19909;-42